Bemidji, MN

7:19 AM CDT on July 24, 2017 (GMT -0500)
Bemidji-Beltrami County

Weather History for KBJI - November, 2010

Change the Weather History Date:

Monday, November 1, 2010

  Actual Average Record
Temperature  
Mean Temperature 44 °F -  
Max Temperature 57 °F 43 °F 65 °F (1958)
Min Temperature 32 °F 26 °F -1 °F (1951)
Degree Days  
Heating Degree Days 20    
Moisture  
Dew Point 33 °F    
Average Humidity 73    
Maximum Humidity 93    
Minimum Humidity 33    
Precipitation  
Precipitation 0.00 in - - ()
Sea Level Pressure  
Sea Level Pressure 30.30 in    
Wind  
Wind Speed 4 mph (South)    
Max Wind Speed 10 mph    
Max Gust Speed -    
Visibility 8 miles    
Events      
Averages and records for this station are not official NWS values.
T = Trace of Precipitation, MM = Missing Value Source: NWS Daily Summary

Daily Weather History Graph

Daily Weather History Graph

Search for Another Location

Airport or City:

Trip Planner

Search our weather history database for the weather conditions in past years. The results will help you decide how hot, cold, wet, or windy it might be!

Date:

Astronomy

Nov. 01, 2010 Rise Set
Actual Time 8:03 AM CDT 6:02 PM CDT
Civil Twilight 7:31 AM CDT 6:34 PM CDT
Nautical Twilight 6:55 AM CDT 7:10 PM CDT
Astronomical Twilight 6:19 AM CDT 7:46 PM CDT
Moon 2:19 AM CDT (11/1) 3:28 PM CDT (11/1)
Length of Visible Light 11h 03m
Length of Day
9h 58m
Waning Crescent, 26% of the Moon is Illuminated
Nov 1
Waning Crescent
Nov 5
New
Nov 13
First Quarter
Nov 21
Full
Nov 28
Last Quarter

Hourly Weather History & Observations

Time (CDT) Temp. Windchill Dew Point Humidity Pressure Visibility Wind Dir Wind Speed Gust Speed Precip Events Conditions
12:16 AM 32.0 °F - 30.2 °F 93% 30.26 in 10.0 mi Calm Calm - N/A   Clear
12:36 AM 33.8 °F - 32.0 °F 93% 30.26 in 10.0 mi Calm Calm - N/A   Clear
12:54 AM 33.8 °F 29.6 °F 32.0 °F 93% 30.26 in 10.0 mi South 4.6 mph - N/A   Clear
1:14 AM 33.8 °F 30.8 °F 32.0 °F 93% 30.25 in 10.0 mi South 3.5 mph - N/A   Clear
1:34 AM 32.0 °F - 30.2 °F 93% 30.26 in 10.0 mi Calm Calm - N/A   Clear
1:54 AM 32.0 °F - 30.2 °F 93% 30.26 in 10.0 mi Calm Calm - N/A   Clear
2:14 AM 33.8 °F 29.6 °F 32.0 °F 93% 30.26 in 10.0 mi SSW 4.6 mph - N/A   Clear
2:34 AM 33.8 °F 28.6 °F 32.0 °F 93% 30.27 in 10.0 mi SSW 5.8 mph - N/A   Clear
2:54 AM 33.8 °F 29.6 °F 32.0 °F 93% 30.27 in 10.0 mi SSW 4.6 mph - N/A   Clear
3:14 AM 33.8 °F 30.8 °F 32.0 °F 93% 30.26 in 7.0 mi South 3.5 mph - N/A   Scattered Clouds
3:34 AM 33.8 °F 30.8 °F 32.0 °F 93% 30.26 in 7.0 mi South 3.5 mph - N/A   Mostly Cloudy
3:54 AM 35.6 °F 31.7 °F 33.8 °F 93% 30.26 in 10.0 mi South 4.6 mph - N/A   Overcast
4:14 AM 35.6 °F 30.7 °F 33.8 °F 93% 30.26 in 7.0 mi South 5.8 mph - N/A   Overcast
4:34 AM 35.6 °F 30.7 °F 33.8 °F 93% 30.26 in 10.0 mi South 5.8 mph - N/A   Overcast
4:54 AM 35.6 °F 31.7 °F 33.8 °F 93% 30.26 in 7.0 mi South 4.6 mph - N/A   Overcast
5:14 AM 35.6 °F 31.7 °F 33.8 °F 93% 30.26 in 10.0 mi South 4.6 mph - N/A   Overcast
5:34 AM 35.6 °F 32.8 °F 33.8 °F 93% 30.27 in 10.0 mi South 3.5 mph - N/A   Overcast
5:54 AM 35.6 °F 31.7 °F 33.8 °F 93% 30.28 in 7.0 mi South 4.6 mph - N/A   Overcast
6:14 AM 35.6 °F 32.8 °F 33.8 °F 93% 30.28 in 7.0 mi SSE 3.5 mph - N/A   Overcast
6:34 AM 33.8 °F 28.6 °F 32.0 °F 93% 30.28 in 7.0 mi SSE 5.8 mph - N/A   Scattered Clouds
6:54 AM 33.8 °F 28.6 °F 32.0 °F 93% 30.29 in 7.0 mi SSE 5.8 mph - N/A   Clear
7:14 AM 33.8 °F 28.6 °F 32.0 °F 93% 30.29 in 10.0 mi South 5.8 mph - N/A   Clear
7:34 AM 35.6 °F 31.7 °F 33.8 °F 93% 30.29 in 5.0 mi South 4.6 mph - N/A   Mostly Cloudy
7:54 AM 35.6 °F 31.7 °F 33.8 °F 93% 30.29 in 7.0 mi South 4.6 mph - N/A   Overcast
8:14 AM 33.8 °F - 32.0 °F 93% 30.30 in 7.0 mi Calm Calm - N/A   Overcast
8:34 AM 33.8 °F - 32.0 °F 93% 30.32 in 7.0 mi Calm Calm - N/A   Overcast
8:54 AM 35.6 °F 32.8 °F 33.8 °F 93% 30.32 in 7.0 mi SE 3.5 mph - N/A   Overcast
9:14 AM 37.4 °F 34.9 °F 35.6 °F 93% 30.32 in 5.0 mi SE 3.5 mph - N/A   Overcast
9:34 AM 39.2 °F 35.0 °F 35.6 °F 87% 30.32 in 7.0 mi SSE 5.8 mph - N/A   Overcast
9:54 AM 39.2 °F 35.0 °F 35.6 °F 87% 30.33 in 5.0 mi South 5.8 mph - N/A   Overcast
10:14 AM 39.2 °F 34.2 °F 33.8 °F 81% 30.32 in 7.0 mi South 6.9 mph - N/A   Overcast
10:34 AM 41.0 °F 35.2 °F 33.8 °F 76% 30.33 in 7.0 mi South 9.2 mph - N/A   Overcast
10:54 AM 41.0 °F 36.4 °F 33.8 °F 76% 30.33 in 7.0 mi South 6.9 mph - N/A   Overcast
11:14 AM 42.8 °F 39.3 °F 33.8 °F 70% 30.33 in 7.0 mi South 5.8 mph - N/A   Overcast
11:34 AM 44.6 °F 40.7 °F 35.6 °F 71% 30.33 in 7.0 mi South 6.9 mph - N/A   Overcast
11:54 AM 46.4 °F 44.3 °F 35.6 °F 66% 30.34 in 10.0 mi South 4.6 mph - N/A   Overcast
12:14 PM 48.2 °F - 35.6 °F 62% 30.33 in 7.0 mi SSW 3.5 mph - N/A   Scattered Clouds
12:34 PM 51.8 °F - 35.6 °F 54% 30.32 in 10.0 mi SW 3.5 mph - N/A   Clear
12:54 PM 51.8 °F - 35.6 °F 54% 30.32 in 7.0 mi SW 6.9 mph - N/A   Clear
1:14 PM 53.6 °F - 35.6 °F 51% 30.32 in 7.0 mi SSW 5.8 mph - N/A   Clear
1:34 PM 55.4 °F - 35.6 °F 47% 30.32 in 10.0 mi SW 6.9 mph - N/A   Clear
1:54 PM 55.4 °F - 33.8 °F 44% 30.31 in 10.0 mi SSW 5.8 mph - N/A   Clear
2:14 PM 55.4 °F - 33.8 °F 44% 30.31 in 10.0 mi SW 8.1 mph - N/A   Clear
2:34 PM 57.2 °F - 33.8 °F 41% 30.31 in 7.0 mi SW 6.9 mph - N/A   Clear
2:54 PM 57.2 °F - 30.2 °F 36% 30.30 in 10.0 mi South 8.1 mph - N/A   Clear
3:14 PM 57.2 °F - 30.2 °F 36% 30.30 in 7.0 mi SSW 10.4 mph - N/A   Clear
3:34 PM 57.2 °F - 30.2 °F 36% 30.31 in 10.0 mi SW 8.1 mph - N/A   Clear
3:54 PM 57.2 °F - 30.2 °F 36% 30.31 in 10.0 mi SSW 8.1 mph - N/A   Clear
4:16 PM 57.2 °F - 28.4 °F 33% 30.31 in 10.0 mi SSW 8.1 mph - N/A   Clear
4:34 PM 55.4 °F - 28.4 °F 36% 30.31 in 7.0 mi SSW 5.8 mph - N/A   Clear
4:54 PM 55.4 °F - 28.4 °F 36% 30.31 in 10.0 mi SSW 6.9 mph - N/A   Clear
5:16 PM 53.6 °F - 32.0 °F 44% 30.32 in 10.0 mi South 6.9 mph - N/A   Clear
5:34 PM 53.6 °F - 32.0 °F 44% 30.32 in 7.0 mi South 6.9 mph - N/A   Clear
5:54 PM 50.0 °F - 32.0 °F 50% 30.32 in 7.0 mi South 5.8 mph - N/A   Clear
6:14 PM 48.2 °F - 33.8 °F 58% 30.32 in 10.0 mi South 5.8 mph - N/A   Clear
6:34 PM 46.4 °F 43.5 °F 33.8 °F 62% 30.32 in 10.0 mi South 5.8 mph - N/A   Clear
6:54 PM 46.4 °F 43.5 °F 33.8 °F 62% 30.32 in 7.0 mi South 5.8 mph - N/A   Clear
7:14 PM 46.4 °F 43.5 °F 33.8 °F 62% 30.32 in 10.0 mi South 5.8 mph - N/A   Clear
7:34 PM 44.6 °F 42.2 °F 33.8 °F 66% 30.32 in 10.0 mi South 4.6 mph - N/A   Clear
7:54 PM 44.6 °F 42.2 °F 33.8 °F 66% 30.33 in 10.0 mi South 4.6 mph - N/A   Clear
8:14 PM 44.6 °F 41.4 °F 33.8 °F 66% 30.33 in 10.0 mi South 5.8 mph - N/A   Clear
8:34 PM 44.6 °F 41.4 °F 33.8 °F 66% 30.34 in 10.0 mi South 5.8 mph - N/A   Clear
8:54 PM 44.6 °F 41.4 °F 33.8 °F 66% 30.33 in 10.0 mi South 5.8 mph - N/A   Clear
9:14 PM 42.8 °F 39.3 °F 33.8 °F 70% 30.33 in 10.0 mi South 5.8 mph - N/A   Clear
9:34 PM 41.0 °F 37.1 °F 33.8 °F 76% 30.33 in 10.0 mi South 5.8 mph - N/A   Clear
9:54 PM 41.0 °F 38.0 °F 33.8 °F 76% 30.34 in 10.0 mi South 4.6 mph - N/A   Clear
10:14 PM 41.0 °F 37.1 °F 33.8 °F 76% 30.34 in 10.0 mi South 5.8 mph - N/A   Clear
10:34 PM 41.0 °F 38.0 °F 32.0 °F 70% 30.34 in 10.0 mi SSE 4.6 mph - N/A   Clear
10:54 PM 39.2 °F 35.0 °F 32.0 °F 75% 30.33 in 10.0 mi SSE 5.8 mph - N/A   Clear
11:14 PM 41.0 °F 38.0 °F 32.0 °F 70% 30.33 in 10.0 mi South 4.6 mph - N/A   Clear
11:34 PM 41.0 °F 36.4 °F 32.0 °F 70% 30.32 in 10.0 mi South 6.9 mph - N/A   Clear
11:54 PM 42.8 °F 38.6 °F 32.0 °F 66% 30.32 in 10.0 mi SSW 6.9 mph - N/A   Clear